sensor_id;sensor_type;location;lat;lon;timestamp;P1;durP1;ratioP1;P2;durP2;ratioP2
9821;SDS011;4950;46.042;14.472;2023-08-20T00:01:12;14.25;;;12.52;;
9821;SDS011;4950;46.042;14.472;2023-08-20T00:03:43;17.67;;;12.13;;
9821;SDS011;4950;46.042;14.472;2023-08-20T00:06:11;15.93;;;12.10;;
9821;SDS011;4950;46.042;14.472;2023-08-20T00:08:38;13.55;;;11.90;;
9821;SDS011;4950;46.042;14.472;2023-08-20T00:11:06;15.27;;;12.52;;
9821;SDS011;4950;46.042;14.472;2023-08-20T00:13:33;19.23;;;13.70;;
9821;SDS011;4950;46.042;14.472;2023-08-20T00:16:00;18.83;;;13.80;;
9821;SDS011;4950;46.042;14.472;2023-08-20T00:18:28;17.53;;;13.23;;
9821;SDS011;4950;46.042;14.472;2023-08-20T00:20:55;16.40;;;13.35;;
9821;SDS011;4950;46.042;14.472;2023-08-20T00:23:23;16.00;;;13.45;;
9821;SDS011;4950;46.042;14.472;2023-08-20T00:25:50;17.10;;;13.57;;
9821;SDS011;4950;46.042;14.472;2023-08-20T00:28:19;18.10;;;13.93;;
9821;SDS011;4950;46.042;14.472;2023-08-20T00:30:46;16.33;;;13.15;;
9821;SDS011;4950;46.042;14.472;2023-08-20T00:33:14;17.15;;;13.75;;
9821;SDS011;4950;46.042;14.472;2023-08-20T00:35:41;18.83;;;14.07;;
9821;SDS011;4950;46.042;14.472;2023-08-20T00:38:07;16.27;;;12.93;;
9821;SDS011;4950;46.042;14.472;2023-08-20T00:40:34;16.13;;;13.05;;
9821;SDS011;4950;46.042;14.472;2023-08-20T00:43:01;19.55;;;14.32;;
9821;SDS011;4950;46.042;14.472;2023-08-20T00:45:29;15.55;;;13.35;;
9821;SDS011;4950;46.042;14.472;2023-08-20T00:47:57;20.02;;;12.80;;
9821;SDS011;4950;46.042;14.472;2023-08-20T00:50:23;19.80;;;14.13;;
9821;SDS011;4950;46.042;14.472;2023-08-20T00:52:50;16.52;;;12.85;;
9821;SDS011;4950;46.042;14.472;2023-08-20T00:55:17;16.90;;;13.45;;
9821;SDS011;4950;46.042;14.472;2023-08-20T00:57:44;16.30;;;13.15;;
9821;SDS011;4950;46.042;14.472;2023-08-20T01:00:11;18.33;;;12.45;;
9821;SDS011;4950;46.042;14.472;2023-08-20T01:02:40;15.93;;;13.73;;
9821;SDS011;4950;46.042;14.472;2023-08-20T01:05:07;19.95;;;15.13;;
9821;SDS011;4950;46.042;14.472;2023-08-20T01:07:39;19.17;;;14.70;;
9821;SDS011;4950;46.042;14.472;2023-08-20T01:10:14;21.90;;;15.45;;
9821;SDS011;4950;46.042;14.472;2023-08-20T01:12:47;19.67;;;14.63;;
9821;SDS011;4950;46.042;14.472;2023-08-20T01:15:16;17.95;;;14.75;;
9821;SDS011;4950;46.042;14.472;2023-08-20T01:17:44;17.77;;;14.43;;
9821;SDS011;4950;46.042;14.472;2023-08-20T01:20:11;16.05;;;13.35;;
9821;SDS011;4950;46.042;14.472;2023-08-20T01:22:52;19.92;;;14.10;;
9821;SDS011;4950;46.042;14.472;2023-08-20T01:25:39;20.85;;;14.68;;
9821;SDS011;4950;46.042;14.472;2023-08-20T01:28:22;16.73;;;13.70;;
9821;SDS011;4950;46.042;14.472;2023-08-20T01:30:51;18.65;;;13.10;;
9821;SDS011;4950;46.042;14.472;2023-08-20T01:33:19;19.80;;;14.13;;
9821;SDS011;4950;46.042;14.472;2023-08-20T01:35:46;16.00;;;13.40;;
9821;SDS011;4950;46.042;14.472;2023-08-20T01:38:13;21.48;;;14.98;;
9821;SDS011;4950;46.042;14.472;2023-08-20T01:40:40;21.88;;;15.38;;
9821;SDS011;4950;46.042;14.472;2023-08-20T01:43:06;15.90;;;13.32;;
9821;SDS011;4950;46.042;14.472;2023-08-20T01:45:34;17.75;;;13.77;;
9821;SDS011;4950;46.042;14.472;2023-08-20T01:48:01;17.27;;;13.65;;
9821;SDS011;4950;46.042;14.472;2023-08-20T01:50:29;14.93;;;13.02;;
9821;SDS011;4950;46.042;14.472;2023-08-20T01:52:55;19.83;;;14.40;;
9821;SDS011;4950;46.042;14.472;2023-08-20T01:55:22;19.95;;;14.10;;
9821;SDS011;4950;46.042;14.472;2023-08-20T01:57:49;15.98;;;13.70;;
9821;SDS011;4950;46.042;14.472;2023-08-20T02:00:15;17.48;;;13.75;;
9821;SDS011;4950;46.042;14.472;2023-08-20T02:02:43;19.20;;;13.60;;
9821;SDS011;4950;46.042;14.472;2023-08-20T02:05:10;17.75;;;13.77;;
9821;SDS011;4950;46.042;14.472;2023-08-20T02:07:37;18.35;;;13.38;;
9821;SDS011;4950;46.042;14.472;2023-08-20T02:10:04;22.98;;;13.57;;
9821;SDS011;4950;46.042;14.472;2023-08-20T02:12:32;19.20;;;14.18;;
9821;SDS011;4950;46.042;14.472;2023-08-20T02:14:58;17.70;;;13.55;;
9821;SDS011;4950;46.042;14.472;2023-08-20T02:17:25;19.63;;;13.98;;
9821;SDS011;4950;46.042;14.472;2023-08-20T02:19:53;18.50;;;13.90;;
9821;SDS011;4950;46.042;14.472;2023-08-20T02:22:20;16.83;;;14.02;;
9821;SDS011;4950;46.042;14.472;2023-08-20T02:24:47;17.30;;;13.82;;
9821;SDS011;4950;46.042;14.472;2023-08-20T02:27:13;17.42;;;13.43;;
9821;SDS011;4950;46.042;14.472;2023-08-20T02:29:40;15.95;;;13.35;;
9821;SDS011;4950;46.042;14.472;2023-08-20T02:32:07;17.42;;;13.18;;
9821;SDS011;4950;46.042;14.472;2023-08-20T02:34:33;19.58;;;14.52;;
9821;SDS011;4950;46.042;14.472;2023-08-20T02:37:01;19.95;;;13.93;;
9821;SDS011;4950;46.042;14.472;2023-08-20T02:39:28;19.75;;;14.40;;
9821;SDS011;4950;46.042;14.472;2023-08-20T02:41:56;18.77;;;13.25;;
9821;SDS011;4950;46.042;14.472;2023-08-20T02:44:23;16.85;;;13.27;;
9821;SDS011;4950;46.042;14.472;2023-08-20T02:46:49;16.42;;;13.20;;
9821;SDS011;4950;46.042;14.472;2023-08-20T02:49:16;16.70;;;13.60;;
9821;SDS011;4950;46.042;14.472;2023-08-20T02:51:43;17.33;;;13.05;;
9821;SDS011;4950;46.042;14.472;2023-08-20T02:54:11;21.27;;;13.25;;
9821;SDS011;4950;46.042;14.472;2023-08-20T02:56:38;18.10;;;13.40;;
9821;SDS011;4950;46.042;14.472;2023-08-20T02:59:04;17.67;;;13.18;;
9821;SDS011;4950;46.042;14.472;2023-08-20T03:01:31;19.52;;;14.32;;
9821;SDS011;4950;46.042;14.472;2023-08-20T03:03:58;16.67;;;14.02;;
9821;SDS011;4950;46.042;14.472;2023-08-20T03:06:25;16.02;;;12.95;;
9821;SDS011;4950;46.042;14.472;2023-08-20T03:08:51;14.77;;;12.65;;
9821;SDS011;4950;46.042;14.472;2023-08-20T03:11:21;19.07;;;14.60;;
9821;SDS011;4950;46.042;14.472;2023-08-20T03:13:47;16.55;;;13.20;;
9821;SDS011;4950;46.042;14.472;2023-08-20T03:16:14;21.27;;;14.73;;
9821;SDS011;4950;46.042;14.472;2023-08-20T03:18:40;20.38;;;14.60;;
9821;SDS011;4950;46.042;14.472;2023-08-20T03:21:07;15.77;;;13.07;;
9821;SDS011;4950;46.042;14.472;2023-08-20T03:23:34;18.05;;;14.02;;
9821;SDS011;4950;46.042;14.472;2023-08-20T03:26:01;15.23;;;13.38;;
9821;SDS011;4950;46.042;14.472;2023-08-20T03:28:29;21.10;;;13.48;;
9821;SDS011;4950;46.042;14.472;2023-08-20T03:30:58;20.27;;;13.52;;
9821;SDS011;4950;46.042;14.472;2023-08-20T03:33:26;16.75;;;12.98;;
9821;SDS011;4950;46.042;14.472;2023-08-20T03:35:52;17.83;;;13.40;;
9821;SDS011;4950;46.042;14.472;2023-08-20T03:38:19;17.02;;;12.32;;
9821;SDS011;4950;46.042;14.472;2023-08-20T03:40:47;21.05;;;12.45;;
9821;SDS011;4950;46.042;14.472;2023-08-20T03:43:13;19.30;;;12.80;;
9821;SDS011;4950;46.042;14.472;2023-08-20T03:45:42;17.90;;;13.45;;
9821;SDS011;4950;46.042;14.472;2023-08-20T03:48:08;20.52;;;13.68;;
9821;SDS011;4950;46.042;14.472;2023-08-20T03:50:36;16.88;;;13.70;;
9821;SDS011;4950;46.042;14.472;2023-08-20T03:53:03;15.80;;;12.77;;
9821;SDS011;4950;46.042;14.472;2023-08-20T03:55:30;19.15;;;13.30;;
9821;SDS011;4950;46.042;14.472;2023-08-20T03:57:56;15.25;;;11.90;;
9821;SDS011;4950;46.042;14.472;2023-08-20T04:00:23;16.13;;;13.25;;
9821;SDS011;4950;46.042;14.472;2023-08-20T04:02:51;18.10;;;13.38;;
9821;SDS011;4950;46.042;14.472;2023-08-20T04:05:18;19.38;;;13.00;;
9821;SDS011;4950;46.042;14.472;2023-08-20T04:07:45;15.88;;;12.98;;
9821;SDS011;4950;46.042;14.472;2023-08-20T04:10:12;17.90;;;12.77;;
9821;SDS011;4950;46.042;14.472;2023-08-20T04:12:39;18.13;;;12.73;;
9821;SDS011;4950;46.042;14.472;2023-08-20T04:15:06;16.08;;;12.68;;
9821;SDS011;4950;46.042;14.472;2023-08-20T04:17:32;16.80;;;13.57;;
9821;SDS011;4950;46.042;14.472;2023-08-20T04:20:01;22.83;;;14.35;;
9821;SDS011;4950;46.042;14.472;2023-08-20T04:22:30;16.92;;;14.00;;
9821;SDS011;4950;46.042;14.472;2023-08-20T04:24:56;16.48;;;13.30;;
9821;SDS011;4950;46.042;14.472;2023-08-20T04:27:23;16.77;;;12.82;;
9821;SDS011;4950;46.042;14.472;2023-08-20T04:29:50;18.95;;;13.68;;
9821;SDS011;4950;46.042;14.472;2023-08-20T04:32:17;17.83;;;13.80;;
9821;SDS011;4950;46.042;14.472;2023-08-20T04:34:43;15.88;;;13.05;;
9821;SDS011;4950;46.042;14.472;2023-08-20T04:37:12;19.60;;;14.30;;
9821;SDS011;4950;46.042;14.472;2023-08-20T04:39:39;15.07;;;12.82;;
9821;SDS011;4950;46.042;14.472;2023-08-20T04:42:06;15.95;;;13.18;;
9821;SDS011;4950;46.042;14.472;2023-08-20T04:44:32;16.50;;;12.63;;
9821;SDS011;4950;46.042;14.472;2023-08-20T04:46:59;21.50;;;14.95;;
9821;SDS011;4950;46.042;14.472;2023-08-20T04:49:26;16.88;;;13.20;;
9821;SDS011;4950;46.042;14.472;2023-08-20T04:51:55;16.67;;;13.35;;
9821;SDS011;4950;46.042;14.472;2023-08-20T04:54:23;16.85;;;13.23;;
9821;SDS011;4950;46.042;14.472;2023-08-20T04:56:49;15.57;;;13.07;;
9821;SDS011;4950;46.042;14.472;2023-08-20T04:59:16;20.55;;;13.20;;
9821;SDS011;4950;46.042;14.472;2023-08-20T05:01:43;19.95;;;14.13;;
9821;SDS011;4950;46.042;14.472;2023-08-20T05:04:09;17.50;;;13.30;;
9821;SDS011;4950;46.042;14.472;2023-08-20T05:06:37;15.27;;;13.00;;
9821;SDS011;4950;46.042;14.472;2023-08-20T05:09:03;17.55;;;13.93;;
9821;SDS011;4950;46.042;14.472;2023-08-20T05:11:32;17.00;;;13.93;;
9821;SDS011;4950;46.042;14.472;2023-08-20T05:14:00;17.65;;;14.07;;
9821;SDS011;4950;46.042;14.472;2023-08-20T05:16:26;17.37;;;14.53;;
9821;SDS011;4950;46.042;14.472;2023-08-20T05:18:53;17.92;;;14.15;;
9821;SDS011;4950;46.042;14.472;2023-08-20T05:21:20;21.75;;;15.85;;
9821;SDS011;4950;46.042;14.472;2023-08-20T05:23:46;20.45;;;15.50;;
9821;SDS011;4950;46.042;14.472;2023-08-20T05:26:13;22.60;;;17.73;;
9821;SDS011;4950;46.042;14.472;2023-08-20T05:28:41;22.13;;;16.58;;
9821;SDS011;4950;46.042;14.472;2023-08-20T05:31:08;23.80;;;18.53;;
9821;SDS011;4950;46.042;14.472;2023-08-20T05:33:35;22.75;;;18.30;;
9821;SDS011;4950;46.042;14.472;2023-08-20T05:36:02;21.25;;;18.58;;
9821;SDS011;4950;46.042;14.472;2023-08-20T05:38:29;23.75;;;19.95;;
9821;SDS011;4950;46.042;14.472;2023-08-20T05:40:56;25.95;;;19.70;;
9821;SDS011;4950;46.042;14.472;2023-08-20T05:43:22;20.05;;;16.67;;
9821;SDS011;4950;46.042;14.472;2023-08-20T05:45:50;23.98;;;19.23;;
9821;SDS011;4950;46.042;14.472;2023-08-20T05:48:17;23.63;;;19.10;;
9821;SDS011;4950;46.042;14.472;2023-08-20T05:50:44;27.30;;;20.13;;
9821;SDS011;4950;46.042;14.472;2023-08-20T05:53:10;22.65;;;18.67;;
9821;SDS011;4950;46.042;14.472;2023-08-20T05:55:37;24.20;;;17.15;;
9821;SDS011;4950;46.042;14.472;2023-08-20T05:58:04;22.20;;;17.90;;
9821;SDS011;4950;46.042;14.472;2023-08-20T06:00:31;24.58;;;19.42;;
9821;SDS011;4950;46.042;14.472;2023-08-20T06:02:59;28.15;;;18.85;;
9821;SDS011;4950;46.042;14.472;2023-08-20T06:05:26;20.10;;;16.60;;
9821;SDS011;4950;46.042;14.472;2023-08-20T06:07:52;25.50;;;19.63;;
9821;SDS011;4950;46.042;14.472;2023-08-20T06:10:19;23.63;;;18.83;;
9821;SDS011;4950;46.042;14.472;2023-08-20T06:12:46;24.70;;;19.83;;
9821;SDS011;4950;46.042;14.472;2023-08-20T06:15:13;21.42;;;18.75;;
9821;SDS011;4950;46.042;14.472;2023-08-20T06:17:40;22.48;;;18.42;;
9821;SDS011;4950;46.042;14.472;2023-08-20T06:20:08;27.55;;;19.48;;
9821;SDS011;4950;46.042;14.472;2023-08-20T06:22:36;21.58;;;17.65;;
9821;SDS011;4950;46.042;14.472;2023-08-20T06:25:04;21.95;;;18.95;;
9821;SDS011;4950;46.042;14.472;2023-08-20T06:27:31;26.83;;;20.38;;
9821;SDS011;4950;46.042;14.472;2023-08-20T06:29:58;26.63;;;20.35;;
9821;SDS011;4950;46.042;14.472;2023-08-20T06:32:25;25.58;;;20.88;;
9821;SDS011;4950;46.042;14.472;2023-08-20T06:34:51;24.23;;;18.92;;
9821;SDS011;4950;46.042;14.472;2023-08-20T06:37:19;25.23;;;20.60;;
9821;SDS011;4950;46.042;14.472;2023-08-20T06:39:46;22.25;;;18.60;;
9821;SDS011;4950;46.042;14.472;2023-08-20T06:42:13;23.45;;;20.05;;
9821;SDS011;4950;46.042;14.472;2023-08-20T06:44:40;24.83;;;21.10;;
9821;SDS011;4950;46.042;14.472;2023-08-20T06:47:06;21.30;;;18.50;;
9821;SDS011;4950;46.042;14.472;2023-08-20T06:49:33;21.00;;;17.33;;
9821;SDS011;4950;46.042;14.472;2023-08-20T06:52:00;22.85;;;18.73;;
9821;SDS011;4950;46.042;14.472;2023-08-20T06:54:28;22.38;;;19.02;;
9821;SDS011;4950;46.042;14.472;2023-08-20T06:56:54;24.50;;;20.10;;
9821;SDS011;4950;46.042;14.472;2023-08-20T06:59:24;25.00;;;19.88;;
9821;SDS011;4950;46.042;14.472;2023-08-20T07:01:52;20.58;;;17.38;;
9821;SDS011;4950;46.042;14.472;2023-08-20T07:04:18;25.45;;;18.98;;
9821;SDS011;4950;46.042;14.472;2023-08-20T07:06:45;23.92;;;17.92;;
9821;SDS011;4950;46.042;14.472;2023-08-20T07:09:12;20.60;;;18.38;;
9821;SDS011;4950;46.042;14.472;2023-08-20T07:11:40;24.48;;;19.73;;
9821;SDS011;4950;46.042;14.472;2023-08-20T07:14:07;25.50;;;21.27;;
9821;SDS011;4950;46.042;14.472;2023-08-20T07:16:36;22.83;;;18.58;;
9821;SDS011;4950;46.042;14.472;2023-08-20T07:19:02;22.27;;;18.20;;
9821;SDS011;4950;46.042;14.472;2023-08-20T07:21:29;21.15;;;18.60;;
9821;SDS011;4950;46.042;14.472;2023-08-20T07:23:56;22.83;;;19.45;;
9821;SDS011;4950;46.042;14.472;2023-08-20T07:26:23;24.08;;;18.38;;
9821;SDS011;4950;46.042;14.472;2023-08-20T07:28:51;24.33;;;20.38;;
9821;SDS011;4950;46.042;14.472;2023-08-20T07:31:24;24.67;;;20.85;;
9821;SDS011;4950;46.042;14.472;2023-08-20T07:33:52;22.40;;;19.05;;
9821;SDS011;4950;46.042;14.472;2023-08-20T07:36:21;24.10;;;19.70;;
9821;SDS011;4950;46.042;14.472;2023-08-20T07:38:48;26.63;;;19.67;;
9821;SDS011;4950;46.042;14.472;2023-08-20T07:41:16;22.63;;;18.20;;
9821;SDS011;4950;46.042;14.472;2023-08-20T07:43:44;24.23;;;20.00;;
9821;SDS011;4950;46.042;14.472;2023-08-20T07:46:13;20.25;;;16.85;;
9821;SDS011;4950;46.042;14.472;2023-08-20T07:48:40;22.08;;;19.25;;
9821;SDS011;4950;46.042;14.472;2023-08-20T07:51:07;26.60;;;20.52;;
9821;SDS011;4950;46.042;14.472;2023-08-20T07:53:34;24.23;;;20.27;;
9821;SDS011;4950;46.042;14.472;2023-08-20T07:56:01;25.17;;;18.67;;
9821;SDS011;4950;46.042;14.472;2023-08-20T07:58:28;20.85;;;17.38;;
9821;SDS011;4950;46.042;14.472;2023-08-20T08:00:55;22.05;;;17.23;;
9821;SDS011;4950;46.042;14.472;2023-08-20T08:03:24;19.23;;;16.77;;
9821;SDS011;4950;46.042;14.472;2023-08-20T08:05:51;22.15;;;18.35;;
9821;SDS011;4950;46.042;14.472;2023-08-20T08:08:19;20.38;;;17.60;;
9821;SDS011;4950;46.042;14.472;2023-08-20T08:10:46;20.52;;;18.23;;
9821;SDS011;4950;46.042;14.472;2023-08-20T08:13:13;21.55;;;18.48;;
9821;SDS011;4950;46.042;14.472;2023-08-20T08:15:41;20.98;;;18.13;;
9821;SDS011;4950;46.042;14.472;2023-08-20T08:18:08;23.02;;;17.05;;
9821;SDS011;4950;46.042;14.472;2023-08-20T08:20:36;20.42;;;17.92;;
9821;SDS011;4950;46.042;14.472;2023-08-20T08:23:03;22.52;;;19.23;;
9821;SDS011;4950;46.042;14.472;2023-08-20T08:25:30;22.05;;;17.50;;
9821;SDS011;4950;46.042;14.472;2023-08-20T08:27:57;21.70;;;15.85;;
9821;SDS011;4950;46.042;14.472;2023-08-20T08:30:24;20.17;;;16.17;;
9821;SDS011;4950;46.042;14.472;2023-08-20T08:32:50;19.20;;;17.08;;
9821;SDS011;4950;46.042;14.472;2023-08-20T08:35:19;22.63;;;16.23;;
9821;SDS011;4950;46.042;14.472;2023-08-20T08:37:47;19.80;;;16.48;;
9821;SDS011;4950;46.042;14.472;2023-08-20T08:40:14;21.65;;;17.00;;
9821;SDS011;4950;46.042;14.472;2023-08-20T08:42:41;22.95;;;18.50;;
9821;SDS011;4950;46.042;14.472;2023-08-20T08:45:09;21.67;;;17.38;;
9821;SDS011;4950;46.042;14.472;2023-08-20T08:47:36;19.10;;;16.50;;
9821;SDS011;4950;46.042;14.472;2023-08-20T08:50:06;20.40;;;16.10;;
9821;SDS011;4950;46.042;14.472;2023-08-20T08:52:35;21.15;;;15.93;;
9821;SDS011;4950;46.042;14.472;2023-08-20T08:55:05;20.15;;;17.08;;
9821;SDS011;4950;46.042;14.472;2023-08-20T08:57:33;23.40;;;17.50;;
9821;SDS011;4950;46.042;14.472;2023-08-20T09:00:00;19.38;;;15.65;;
9821;SDS011;4950;46.042;14.472;2023-08-20T09:02:27;19.25;;;16.20;;
9821;SDS011;4950;46.042;14.472;2023-08-20T09:04:54;19.48;;;16.33;;
9821;SDS011;4950;46.042;14.472;2023-08-20T09:07:21;21.15;;;16.42;;
9821;SDS011;4950;46.042;14.472;2023-08-20T09:09:48;21.75;;;15.18;;
9821;SDS011;4950;46.042;14.472;2023-08-20T09:12:19;19.15;;;15.18;;
9821;SDS011;4950;46.042;14.472;2023-08-20T09:14:46;19.92;;;15.38;;
9821;SDS011;4950;46.042;14.472;2023-08-20T09:17:15;19.40;;;15.32;;
9821;SDS011;4950;46.042;14.472;2023-08-20T09:19:44;17.25;;;15.10;;
9821;SDS011;4950;46.042;14.472;2023-08-20T09:22:11;19.10;;;14.60;;
9821;SDS011;4950;46.042;14.472;2023-08-20T09:24:39;15.48;;;13.68;;
9821;SDS011;4950;46.042;14.472;2023-08-20T09:27:08;15.93;;;14.18;;
9821;SDS011;4950;46.042;14.472;2023-08-20T09:29:44;17.85;;;14.52;;
9821;SDS011;4950;46.042;14.472;2023-08-20T09:32:16;15.75;;;12.73;;
9821;SDS011;4950;46.042;14.472;2023-08-20T09:34:44;13.43;;;11.63;;
9821;SDS011;4950;46.042;14.472;2023-08-20T09:37:12;14.32;;;11.38;;
9821;SDS011;4950;46.042;14.472;2023-08-20T09:39:40;13.60;;;10.73;;
9821;SDS011;4950;46.042;14.472;2023-08-20T09:42:08;14.13;;;9.77;;
9821;SDS011;4950;46.042;14.472;2023-08-20T09:44:35;11.25;;;9.65;;
9821;SDS011;4950;46.042;14.472;2023-08-20T09:47:07;12.82;;;9.50;;
9821;SDS011;4950;46.042;14.472;2023-08-20T09:49:38;15.98;;;10.10;;
9821;SDS011;4950;46.042;14.472;2023-08-20T09:52:06;10.60;;;9.18;;
9821;SDS011;4950;46.042;14.472;2023-08-20T09:54:40;15.88;;;9.30;;
9821;SDS011;4950;46.042;14.472;2023-08-20T09:57:20;14.57;;;9.57;;
9821;SDS011;4950;46.042;14.472;2023-08-20T09:59:52;13.68;;;9.55;;
9821;SDS011;4950;46.042;14.472;2023-08-20T10:02:21;12.23;;;9.15;;
9821;SDS011;4950;46.042;14.472;2023-08-20T10:04:48;12.80;;;8.15;;
9821;SDS011;4950;46.042;14.472;2023-08-20T10:07:15;10.30;;;8.63;;
9821;SDS011;4950;46.042;14.472;2023-08-20T10:09:42;12.68;;;9.02;;
9821;SDS011;4950;46.042;14.472;2023-08-20T10:12:11;11.70;;;8.80;;
9821;SDS011;4950;46.042;14.472;2023-08-20T10:14:39;14.53;;;9.03;;
9821;SDS011;4950;46.042;14.472;2023-08-20T10:17:09;13.05;;;8.07;;
9821;SDS011;4950;46.042;14.472;2023-08-20T10:19:37;13.75;;;8.05;;
9821;SDS011;4950;46.042;14.472;2023-08-20T10:22:05;14.00;;;9.38;;
9821;SDS011;4950;46.042;14.472;2023-08-20T10:24:40;9.10;;;8.02;;
9821;SDS011;4950;46.042;14.472;2023-08-20T10:27:18;11.73;;;7.07;;
9821;SDS011;4950;46.042;14.472;2023-08-20T10:29:52;8.85;;;7.18;;
9821;SDS011;4950;46.042;14.472;2023-08-20T10:34:50;10.73;;;7.80;;
9821;SDS011;4950;46.042;14.472;2023-08-20T10:37:25;12.07;;;7.97;;
9821;SDS011;4950;46.042;14.472;2023-08-20T10:39:53;12.15;;;8.25;;
9821;SDS011;4950;46.042;14.472;2023-08-20T10:42:22;10.43;;;7.70;;
9821;SDS011;4950;46.042;14.472;2023-08-20T10:45:01;9.25;;;7.43;;
9821;SDS011;4950;46.042;14.472;2023-08-20T10:50:18;11.10;;;8.38;;
9821;SDS011;4950;46.042;14.472;2023-08-20T10:52:49;11.55;;;7.90;;
9821;SDS011;4950;46.042;14.472;2023-08-20T10:55:21;9.18;;;7.45;;
9821;SDS011;4950;46.042;14.472;2023-08-20T10:57:54;9.85;;;7.07;;
9821;SDS011;4950;46.042;14.472;2023-08-20T11:00:22;11.00;;;7.85;;
9821;SDS011;4950;46.042;14.472;2023-08-20T11:02:49;8.85;;;7.53;;
9821;SDS011;4950;46.042;14.472;2023-08-20T11:05:16;12.60;;;8.00;;
9821;SDS011;4950;46.042;14.472;2023-08-20T11:07:46;10.35;;;7.90;;
9821;SDS011;4950;46.042;14.472;2023-08-20T11:10:14;12.02;;;7.25;;
9821;SDS011;4950;46.042;14.472;2023-08-20T11:12:42;8.25;;;7.10;;
9821;SDS011;4950;46.042;14.472;2023-08-20T11:15:09;11.27;;;7.88;;
9821;SDS011;4950;46.042;14.472;2023-08-20T11:17:40;10.02;;;7.55;;
9821;SDS011;4950;46.042;14.472;2023-08-20T11:20:08;9.43;;;8.18;;
9821;SDS011;4950;46.042;14.472;2023-08-20T11:22:38;10.60;;;7.50;;
9821;SDS011;4950;46.042;14.472;2023-08-20T11:25:05;11.25;;;7.72;;
9821;SDS011;4950;46.042;14.472;2023-08-20T11:27:32;13.00;;;8.30;;
9821;SDS011;4950;46.042;14.472;2023-08-20T11:29:59;9.77;;;8.48;;
9821;SDS011;4950;46.042;14.472;2023-08-20T11:32:27;10.77;;;7.80;;
9821;SDS011;4950;46.042;14.472;2023-08-20T11:34:54;13.00;;;8.00;;
9821;SDS011;4950;46.042;14.472;2023-08-20T11:37:20;11.23;;;7.97;;
9821;SDS011;4950;46.042;14.472;2023-08-20T11:39:49;10.45;;;7.82;;
9821;SDS011;4950;46.042;14.472;2023-08-20T11:42:15;10.57;;;7.85;;
9821;SDS011;4950;46.042;14.472;2023-08-20T11:44:42;12.85;;;7.80;;
9821;SDS011;4950;46.042;14.472;2023-08-20T11:47:13;13.75;;;8.13;;
9821;SDS011;4950;46.042;14.472;2023-08-20T11:49:41;14.48;;;7.18;;
9821;SDS011;4950;46.042;14.472;2023-08-20T11:52:08;8.57;;;6.82;;
9821;SDS011;4950;46.042;14.472;2023-08-20T11:54:35;11.27;;;7.93;;
9821;SDS011;4950;46.042;14.472;2023-08-20T11:57:04;10.00;;;8.00;;
9821;SDS011;4950;46.042;14.472;2023-08-20T11:59:32;9.30;;;7.32;;
9821;SDS011;4950;46.042;14.472;2023-08-20T12:02:00;12.02;;;6.90;;
9821;SDS011;4950;46.042;14.472;2023-08-20T12:04:28;7.68;;;6.38;;
9821;SDS011;4950;46.042;14.472;2023-08-20T12:07:02;13.38;;;7.13;;
9821;SDS011;4950;46.042;14.472;2023-08-20T12:09:30;10.68;;;7.10;;
9821;SDS011;4950;46.042;14.472;2023-08-20T12:11:58;12.25;;;7.38;;
9821;SDS011;4950;46.042;14.472;2023-08-20T12:14:26;8.55;;;7.00;;
9821;SDS011;4950;46.042;14.472;2023-08-20T12:19:19;9.60;;;7.03;;
9821;SDS011;4950;46.042;14.472;2023-08-20T12:21:46;9.15;;;6.90;;
9821;SDS011;4950;46.042;14.472;2023-08-20T12:24:14;7.75;;;6.95;;
9821;SDS011;4950;46.042;14.472;2023-08-20T12:26:41;10.98;;;7.40;;
9821;SDS011;4950;46.042;14.472;2023-08-20T12:29:08;11.57;;;7.03;;
9821;SDS011;4950;46.042;14.472;2023-08-20T12:31:36;8.05;;;7.07;;
9821;SDS011;4950;46.042;14.472;2023-08-20T12:34:03;12.00;;;7.15;;
9821;SDS011;4950;46.042;14.472;2023-08-20T12:36:30;11.60;;;7.53;;
9821;SDS011;4950;46.042;14.472;2023-08-20T12:38:56;9.02;;;7.05;;
9821;SDS011;4950;46.042;14.472;2023-08-20T12:41:23;8.40;;;7.15;;
9821;SDS011;4950;46.042;14.472;2023-08-20T12:43:50;9.63;;;7.18;;
9821;SDS011;4950;46.042;14.472;2023-08-20T12:46:17;9.68;;;6.95;;
9821;SDS011;4950;46.042;14.472;2023-08-20T12:48:46;36.22;;;6.50;;
9821;SDS011;4950;46.042;14.472;2023-08-20T12:53:42;11.95;;;7.22;;
9821;SDS011;4950;46.042;14.472;2023-08-20T12:56:09;12.35;;;7.03;;
9821;SDS011;4950;46.042;14.472;2023-08-20T12:58:37;20.60;;;7.32;;
9821;SDS011;4950;46.042;14.472;2023-08-20T13:01:03;11.88;;;6.90;;
9821;SDS011;4950;46.042;14.472;2023-08-20T13:03:30;11.68;;;7.70;;
9821;SDS011;4950;46.042;14.472;2023-08-20T13:05:59;9.40;;;6.60;;
9821;SDS011;4950;46.042;14.472;2023-08-20T13:08:27;18.73;;;7.55;;
9821;SDS011;4950;46.042;14.472;2023-08-20T13:10:54;36.00;;;9.93;;
9821;SDS011;4950;46.042;14.472;2023-08-20T13:13:22;22.95;;;8.07;;
9821;SDS011;4950;46.042;14.472;2023-08-20T13:15:50;24.05;;;7.80;;
9821;SDS011;4950;46.042;14.472;2023-08-20T13:18:18;22.13;;;7.70;;
9821;SDS011;4950;46.042;14.472;2023-08-20T13:20:49;12.73;;;7.68;;
9821;SDS011;4950;46.042;14.472;2023-08-20T13:23:18;10.45;;;6.60;;
9821;SDS011;4950;46.042;14.472;2023-08-20T13:25:45;11.07;;;7.10;;
9821;SDS011;4950;46.042;14.472;2023-08-20T13:28:12;10.95;;;7.28;;
9821;SDS011;4950;46.042;14.472;2023-08-20T13:30:38;10.52;;;7.30;;
9821;SDS011;4950;46.042;14.472;2023-08-20T13:33:05;11.05;;;6.95;;
9821;SDS011;4950;46.042;14.472;2023-08-20T13:35:32;9.40;;;7.30;;
9821;SDS011;4950;46.042;14.472;2023-08-20T13:37:59;10.15;;;6.63;;
9821;SDS011;4950;46.042;14.472;2023-08-20T13:40:27;9.65;;;7.15;;
9821;SDS011;4950;46.042;14.472;2023-08-20T13:42:54;8.48;;;7.15;;
9821;SDS011;4950;46.042;14.472;2023-08-20T13:45:20;21.05;;;7.90;;
9821;SDS011;4950;46.042;14.472;2023-08-20T13:47:47;15.00;;;7.65;;
9821;SDS011;4950;46.042;14.472;2023-08-20T13:50:14;28.45;;;8.02;;
9821;SDS011;4950;46.042;14.472;2023-08-20T13:52:41;24.00;;;7.88;;
9821;SDS011;4950;46.042;14.472;2023-08-20T13:55:08;7.93;;;6.75;;
9821;SDS011;4950;46.042;14.472;2023-08-20T13:57:36;9.88;;;7.00;;
9821;SDS011;4950;46.042;14.472;2023-08-20T14:02:33;9.52;;;6.85;;
9821;SDS011;4950;46.042;14.472;2023-08-20T14:05:00;15.00;;;7.28;;
9821;SDS011;4950;46.042;14.472;2023-08-20T14:07:29;7.95;;;6.43;;
9821;SDS011;4950;46.042;14.472;2023-08-20T14:09:56;14.77;;;7.13;;
9821;SDS011;4950;46.042;14.472;2023-08-20T14:12:22;10.63;;;6.30;;
9821;SDS011;4950;46.042;14.472;2023-08-20T14:14:50;10.02;;;6.93;;
9821;SDS011;4950;46.042;14.472;2023-08-20T14:19:44;9.68;;;6.10;;
9821;SDS011;4950;46.042;14.472;2023-08-20T14:22:10;14.20;;;7.07;;
9821;SDS011;4950;46.042;14.472;2023-08-20T14:24:37;27.67;;;8.98;;
9821;SDS011;4950;46.042;14.472;2023-08-20T14:27:04;10.75;;;7.07;;
9821;SDS011;4950;46.042;14.472;2023-08-20T14:29:32;10.18;;;6.43;;
9821;SDS011;4950;46.042;14.472;2023-08-20T14:32:00;11.35;;;7.15;;
9821;SDS011;4950;46.042;14.472;2023-08-20T14:34:27;8.75;;;6.85;;
9821;SDS011;4950;46.042;14.472;2023-08-20T14:36:54;10.93;;;7.73;;
9821;SDS011;4950;46.042;14.472;2023-08-20T14:39:21;12.65;;;7.15;;
9821;SDS011;4950;46.042;14.472;2023-08-20T14:41:48;10.00;;;6.97;;
9821;SDS011;4950;46.042;14.472;2023-08-20T14:44:15;11.38;;;7.35;;
9821;SDS011;4950;46.042;14.472;2023-08-20T14:46:42;9.52;;;7.05;;
9821;SDS011;4950;46.042;14.472;2023-08-20T14:49:10;9.32;;;6.82;;
9821;SDS011;4950;46.042;14.472;2023-08-20T14:54:03;8.32;;;6.20;;
9821;SDS011;4950;46.042;14.472;2023-08-20T14:56:31;11.38;;;6.10;;
9821;SDS011;4950;46.042;14.472;2023-08-20T14:58:57;8.20;;;6.70;;
9821;SDS011;4950;46.042;14.472;2023-08-20T15:01:24;15.27;;;6.38;;